sensor_id;sensor_type;location;lat;lon;timestamp;pressure;altitude;pressure_sealevel;temperature;humidity
57562;BME280;43397;51.530;5.974;2023-04-08T09:30:46;76284.44;;;-145.90;42.78
57562;BME280;43397;51.530;5.974;2023-04-08T09:33:11;76355.41;;;-145.90;44.05
57562;BME280;43397;51.530;5.974;2023-04-08T09:35:37;76477.03;;;-145.90;47.29
57562;BME280;43397;51.530;5.974;2023-04-08T09:38:03;76550.00;;;-145.90;46.52
57562;BME280;43397;51.530;5.974;2023-04-08T09:40:32;76454.72;;;-145.90;46.28
57562;BME280;43397;51.530;5.974;2023-04-08T09:43:02;76408.09;;;-145.90;45.22
57562;BME280;43397;51.530;5.974;2023-04-08T09:45:29;76523.63;;;-145.90;45.64
57562;BME280;43397;51.530;5.974;2023-04-08T09:48:05;76422.28;;;-145.90;45.28
57562;BME280;43397;51.530;5.974;2023-04-08T09:50:41;76404.03;;;-145.90;44.82
57562;BME280;43397;51.530;5.974;2023-04-08T09:53:09;76395.94;;;-145.90;46.18
57562;BME280;43397;51.530;5.974;2023-04-08T09:55:38;75984.47;;;-145.90;40.93
57562;BME280;43397;51.530;5.974;2023-04-08T09:58:10;76183.09;;;-145.90;43.43
57562;BME280;43397;51.530;5.974;2023-04-08T10:00:43;76312.81;;;-145.90;45.09
57562;BME280;43397;51.530;5.974;2023-04-08T10:03:18;76217.56;;;-145.90;44.07
57562;BME280;43397;51.530;5.974;2023-04-08T10:05:48;76087.84;;;-145.90;42.55
57562;BME280;43397;51.530;5.974;2023-04-08T10:08:15;76010.81;;;-145.90;40.59
57562;BME280;43397;51.530;5.974;2023-04-08T10:10:41;76006.75;;;-145.90;39.95
57562;BME280;43397;51.530;5.974;2023-04-08T10:13:08;76100.00;;;-145.90;41.37
57562;BME280;43397;51.530;5.974;2023-04-08T10:15:34;76085.81;;;-145.90;40.98
57562;BME280;43397;51.530;5.974;2023-04-08T10:18:31;76243.91;;;-145.90;42.94
57562;BME280;43397;51.530;5.974;2023-04-08T10:20:57;76329.03;;;-145.90;43.35
57562;BME280;43397;51.530;5.974;2023-04-08T10:26:32;76191.22;;;-145.90;42.40
57562;BME280;43397;51.530;5.974;2023-04-08T10:32:05;75968.25;;;-145.90;42.22
57562;BME280;43397;51.530;5.974;2023-04-08T10:34:32;75848.66;;;-145.90;38.88
57562;BME280;43397;51.530;5.974;2023-04-08T10:36:58;76112.16;;;-145.90;42.07
57562;BME280;43397;51.530;5.974;2023-04-08T10:39:24;76108.09;;;-145.90;40.06
57562;BME280;43397;51.530;5.974;2023-04-08T10:41:50;76063.50;;;-145.90;40.22
57562;BME280;43397;51.530;5.974;2023-04-08T10:44:16;76122.28;;;-145.90;41.12
57562;BME280;43397;51.530;5.974;2023-04-08T10:46:42;76177.03;;;-145.90;40.88
57562;BME280;43397;51.530;5.974;2023-04-08T10:49:07;75947.97;;;-145.90;39.64
57562;BME280;43397;51.530;5.974;2023-04-08T10:51:34;76207.41;;;-145.90;39.52
57562;BME280;43397;51.530;5.974;2023-04-08T10:54:04;76022.97;;;-145.90;42.10
57562;BME280;43397;51.530;5.974;2023-04-08T10:56:30;76166.88;;;-145.90;40.49
57562;BME280;43397;51.530;5.974;2023-04-08T10:58:56;76047.28;;;-145.90;39.16
57562;BME280;43397;51.530;5.974;2023-04-08T11:01:22;76071.63;;;-145.90;41.00
57562;BME280;43397;51.530;5.974;2023-04-08T11:03:48;75996.63;;;-145.90;42.23
57562;BME280;43397;51.530;5.974;2023-04-08T11:06:14;75952.03;;;-145.90;36.42
57562;BME280;43397;51.530;5.974;2023-04-08T11:08:41;75848.66;;;-145.90;40.45
57562;BME280;43397;51.530;5.974;2023-04-08T11:11:07;75854.75;;;-145.90;37.87
57562;BME280;43397;51.530;5.974;2023-04-08T11:13:33;75945.94;;;-145.90;38.12
57562;BME280;43397;51.530;5.974;2023-04-08T11:15:59;75966.22;;;-145.90;36.37
57562;BME280;43397;51.530;5.974;2023-04-08T11:18:25;75881.09;;;-145.90;36.54
57562;BME280;43397;51.530;5.974;2023-04-08T11:20:51;76039.19;;;-145.90;38.25
57562;BME280;43397;51.530;5.974;2023-04-08T11:23:17;76089.84;;;-145.90;39.29
57562;BME280;43397;51.530;5.974;2023-04-08T11:25:45;76077.69;;;-145.90;40.17
57562;BME280;43397;51.530;5.974;2023-04-08T11:28:11;75862.84;;;-145.90;39.46
57562;BME280;43397;51.530;5.974;2023-04-08T11:30:38;75937.84;;;-145.90;36.20
57562;BME280;43397;51.530;5.974;2023-04-08T11:33:04;75765.56;;;-145.90;37.57
57562;BME280;43397;51.530;5.974;2023-04-08T11:35:30;75789.88;;;-145.90;36.61
57562;BME280;43397;51.530;5.974;2023-04-08T11:37:56;75769.63;;;-145.90;35.55
57562;BME280;43397;51.530;5.974;2023-04-08T11:40:22;75702.75;;;-145.90;35.02
57562;BME280;43397;51.530;5.974;2023-04-08T11:42:49;75688.56;;;-145.90;34.61
57562;BME280;43397;51.530;5.974;2023-04-08T11:45:16;75658.16;;;-145.90;32.60
57562;BME280;43397;51.530;5.974;2023-04-08T11:47:43;75704.75;;;-145.90;37.73
57562;BME280;43397;51.530;5.974;2023-04-08T11:50:09;75747.31;;;-145.90;35.16
57562;BME280;43397;51.530;5.974;2023-04-08T11:52:42;75678.41;;;-145.90;34.27
57562;BME280;43397;51.530;5.974;2023-04-08T11:55:08;75530.47;;;-145.90;34.45
57562;BME280;43397;51.530;5.974;2023-04-08T11:57:34;75402.78;;;-145.90;30.32
57562;BME280;43397;51.530;5.974;2023-04-08T12:00:01;75591.28;;;-145.90;34.23
57562;BME280;43397;51.530;5.974;2023-04-08T12:02:27;75666.25;;;-145.90;32.47
57562;BME280;43397;51.530;5.974;2023-04-08T12:04:53;75725.03;;;-145.90;32.49
57562;BME280;43397;51.530;5.974;2023-04-08T12:07:18;75747.31;;;-145.90;31.83
57562;BME280;43397;51.530;5.974;2023-04-08T12:09:44;75690.56;;;-145.90;31.39
57562;BME280;43397;51.530;5.974;2023-04-08T12:12:10;75872.97;;;-145.90;32.67
57562;BME280;43397;51.530;5.974;2023-04-08T12:14:35;75947.97;;;-145.90;32.92
57562;BME280;43397;51.530;5.974;2023-04-08T12:17:02;76016.88;;;-145.90;34.83
57562;BME280;43397;51.530;5.974;2023-04-08T12:19:28;76087.84;;;-145.90;34.60
57562;BME280;43397;51.530;5.974;2023-04-08T12:21:53;76166.88;;;-145.90;33.24
57562;BME280;43397;51.530;5.974;2023-04-08T12:24:19;76260.13;;;-145.90;34.36
57562;BME280;43397;51.530;5.974;2023-04-08T12:26:45;76213.50;;;-145.90;33.28
57562;BME280;43397;51.530;5.974;2023-04-08T12:29:10;76239.84;;;-145.90;34.14
57562;BME280;43397;51.530;5.974;2023-04-08T12:31:36;76310.81;;;-145.90;35.44
57562;BME280;43397;51.530;5.974;2023-04-08T12:34:03;76270.25;;;-145.90;36.18
57562;BME280;43397;51.530;5.974;2023-04-08T12:36:29;76298.63;;;-145.90;33.86
57562;BME280;43397;51.530;5.974;2023-04-08T12:38:54;76329.03;;;-145.90;34.80
57562;BME280;43397;51.530;5.974;2023-04-08T12:41:20;76286.47;;;-145.90;33.65
57562;BME280;43397;51.530;5.974;2023-04-08T12:43:45;76304.72;;;-145.90;33.99
57562;BME280;43397;51.530;5.974;2023-04-08T12:46:11;76284.44;;;-145.90;35.31
57562;BME280;43397;51.530;5.974;2023-04-08T12:48:37;76197.28;;;-145.90;34.67
57562;BME280;43397;51.530;5.974;2023-04-08T12:51:04;76290.53;;;-145.90;34.55
57562;BME280;43397;51.530;5.974;2023-04-08T12:53:30;76256.06;;;-145.90;34.83
57562;BME280;43397;51.530;5.974;2023-04-08T12:55:55;76337.16;;;-145.90;35.46
57562;BME280;43397;51.530;5.974;2023-04-08T12:58:22;76440.53;;;-145.90;35.08
57562;BME280;43397;51.530;5.974;2023-04-08T13:00:47;76379.72;;;-145.90;36.82
57562;BME280;43397;51.530;5.974;2023-04-08T13:03:13;76446.63;;;-145.90;35.71
57562;BME280;43397;51.530;5.974;2023-04-08T13:05:39;76393.91;;;-145.90;35.05
57562;BME280;43397;51.530;5.974;2023-04-08T13:08:06;76414.19;;;-145.90;34.70
57562;BME280;43397;51.530;5.974;2023-04-08T13:10:31;76454.72;;;-145.90;34.83
57562;BME280;43397;51.530;5.974;2023-04-08T13:12:57;76426.34;;;-145.90;34.79
57562;BME280;43397;51.530;5.974;2023-04-08T13:15:23;76412.16;;;-145.90;35.11
57562;BME280;43397;51.530;5.974;2023-04-08T13:17:48;76391.88;;;-145.90;34.74
57562;BME280;43397;51.530;5.974;2023-04-08T13:20:14;76211.47;;;-145.90;34.11
57562;BME280;43397;51.530;5.974;2023-04-08T13:22:40;75990.53;;;-145.90;31.92
57562;BME280;43397;51.530;5.974;2023-04-08T13:25:07;76116.22;;;-145.90;32.77
57562;BME280;43397;51.530;5.974;2023-04-08T13:27:33;76191.22;;;-145.90;33.54
57562;BME280;43397;51.530;5.974;2023-04-08T13:29:59;76256.06;;;-145.90;35.12
57562;BME280;43397;51.530;5.974;2023-04-08T13:32:24;76150.66;;;-145.90;32.83
57562;BME280;43397;51.530;5.974;2023-04-08T13:34:50;76144.59;;;-145.90;32.52
57562;BME280;43397;51.530;5.974;2023-04-08T13:37:16;76051.34;;;-145.90;32.35
57562;BME280;43397;51.530;5.974;2023-04-08T13:39:41;75937.84;;;-145.90;32.82
57562;BME280;43397;51.530;5.974;2023-04-08T13:42:08;76102.03;;;-145.90;33.40
57562;BME280;43397;51.530;5.974;2023-04-08T13:44:34;76191.22;;;-145.90;33.07
57562;BME280;43397;51.530;5.974;2023-04-08T13:47:00;76128.38;;;-145.90;33.92
57562;BME280;43397;51.530;5.974;2023-04-08T13:49:25;75986.50;;;-145.90;32.45
57562;BME280;43397;51.530;5.974;2023-04-08T13:51:51;75812.19;;;-145.90;30.72
57562;BME280;43397;51.530;5.974;2023-04-08T13:54:16;76104.03;;;-145.90;33.27
57562;BME280;43397;51.530;5.974;2023-04-08T13:56:42;76272.28;;;-145.90;34.65
57562;BME280;43397;51.530;5.974;2023-04-08T13:59:09;76049.31;;;-145.90;33.65
57562;BME280;43397;51.530;5.974;2023-04-08T14:01:35;76207.41;;;-145.90;35.56
57562;BME280;43397;51.530;5.974;2023-04-08T14:04:00;76185.13;;;-145.90;35.35
57562;BME280;43397;51.530;5.974;2023-04-08T14:06:26;76341.19;;;-145.90;35.25
57562;BME280;43397;51.530;5.974;2023-04-08T14:08:51;76337.16;;;-145.90;35.67
57562;BME280;43397;51.530;5.974;2023-04-08T14:11:17;76211.47;;;-145.90;36.76
57562;BME280;43397;51.530;5.974;2023-04-08T14:13:43;76128.38;;;-145.90;33.15
57562;BME280;43397;51.530;5.974;2023-04-08T14:16:10;76112.16;;;-145.90;33.34
57562;BME280;43397;51.530;5.974;2023-04-08T14:18:35;76223.63;;;-145.90;33.92
57562;BME280;43397;51.530;5.974;2023-04-08T14:21:01;76268.22;;;-145.90;34.11
57562;BME280;43397;51.530;5.974;2023-04-08T14:23:27;76278.38;;;-145.90;34.64
57562;BME280;43397;51.530;5.974;2023-04-08T14:25:52;76333.09;;;-145.90;34.22
57562;BME280;43397;51.530;5.974;2023-04-08T14:28:18;76302.69;;;-145.90;35.10
57562;BME280;43397;51.530;5.974;2023-04-08T14:30:43;76290.53;;;-145.90;35.12
57562;BME280;43397;51.530;5.974;2023-04-08T14:33:10;76359.44;;;-145.90;37.41
57562;BME280;43397;51.530;5.974;2023-04-08T14:35:36;76335.13;;;-145.90;35.87
57562;BME280;43397;51.530;5.974;2023-04-08T14:38:02;76353.38;;;-145.90;35.31
57562;BME280;43397;51.530;5.974;2023-04-08T14:40:27;76434.44;;;-145.90;36.69
57562;BME280;43397;51.530;5.974;2023-04-08T14:42:53;76436.47;;;-145.90;36.39
57562;BME280;43397;51.530;5.974;2023-04-08T14:45:19;76412.16;;;-145.90;36.43
57562;BME280;43397;51.530;5.974;2023-04-08T14:47:44;76458.78;;;-145.90;37.38
57562;BME280;43397;51.530;5.974;2023-04-08T14:50:11;76416.19;;;-145.90;37.26
57562;BME280;43397;51.530;5.974;2023-04-08T14:52:37;76351.34;;;-145.90;37.15
57562;BME280;43397;51.530;5.974;2023-04-08T14:55:03;76187.16;;;-145.90;34.98
57562;BME280;43397;51.530;5.974;2023-04-08T14:57:29;76288.50;;;-145.90;36.56
57562;BME280;43397;51.530;5.974;2023-04-08T14:59:54;76286.47;;;-145.90;35.10
57562;BME280;43397;51.530;5.974;2023-04-08T15:02:20;76310.81;;;-145.90;36.68
57562;BME280;43397;51.530;5.974;2023-04-08T15:04:46;76213.50;;;-145.90;34.80
57562;BME280;43397;51.530;5.974;2023-04-08T15:07:12;76211.47;;;-145.90;35.42
57562;BME280;43397;51.530;5.974;2023-04-08T15:09:38;76266.22;;;-145.90;35.19
57562;BME280;43397;51.530;5.974;2023-04-08T15:12:04;76359.44;;;-145.90;36.51
57562;BME280;43397;51.530;5.974;2023-04-08T15:14:30;76448.63;;;-145.90;37.32
57562;BME280;43397;51.530;5.974;2023-04-08T15:16:55;76347.28;;;-145.90;36.87
57562;BME280;43397;51.530;5.974;2023-04-08T15:19:21;76436.47;;;-145.90;37.90
57562;BME280;43397;51.530;5.974;2023-04-08T15:21:47;76485.13;;;-145.90;38.72
57562;BME280;43397;51.530;5.974;2023-04-08T15:24:14;76428.38;;;-145.90;39.86
57562;BME280;43397;51.530;5.974;2023-04-08T15:26:39;76493.22;;;-145.90;40.77
57562;BME280;43397;51.530;5.974;2023-04-08T15:29:05;76470.94;;;-145.90;40.22
57562;BME280;43397;51.530;5.974;2023-04-08T15:31:31;76436.47;;;-145.90;40.60
57562;BME280;43397;51.530;5.974;2023-04-08T15:33:56;76456.75;;;-145.90;40.55
57562;BME280;43397;51.530;5.974;2023-04-08T15:36:22;76470.94;;;-145.90;41.44
57562;BME280;43397;51.530;5.974;2023-04-08T15:38:48;76533.78;;;-145.90;41.77
57562;BME280;43397;51.530;5.974;2023-04-08T15:41:18;76475.00;;;-145.90;41.31
57562;BME280;43397;51.530;5.974;2023-04-08T15:43:44;76436.47;;;-145.90;41.66
57562;BME280;43397;51.530;5.974;2023-04-08T15:46:09;76424.31;;;-145.90;40.46
57562;BME280;43397;51.530;5.974;2023-04-08T15:48:35;76217.56;;;-145.90;37.63
57562;BME280;43397;51.530;5.974;2023-04-08T15:51:05;76422.28;;;-145.90;41.34
57562;BME280;43397;51.530;5.974;2023-04-08T15:53:31;76379.72;;;-145.90;40.52
57562;BME280;43397;51.530;5.974;2023-04-08T15:55:56;76452.69;;;-145.90;42.38
57562;BME280;43397;51.530;5.974;2023-04-08T15:58:23;76318.91;;;-145.90;40.76
57562;BME280;43397;51.530;5.974;2023-04-08T16:00:49;76320.94;;;-145.90;40.29
57562;BME280;43397;51.530;5.974;2023-04-08T16:03:14;76416.19;;;-145.90;42.40
57562;BME280;43397;51.530;5.974;2023-04-08T16:05:40;76503.38;;;-145.90;42.49
57562;BME280;43397;51.530;5.974;2023-04-08T16:08:06;76416.19;;;-145.90;42.07
57562;BME280;43397;51.530;5.974;2023-04-08T16:10:31;76377.69;;;-145.90;40.47
57562;BME280;43397;51.530;5.974;2023-04-08T16:12:57;76444.59;;;-145.90;41.80
57562;BME280;43397;51.530;5.974;2023-04-08T16:15:24;76475.00;;;-145.90;42.20
57562;BME280;43397;51.530;5.974;2023-04-08T16:17:50;76517.56;;;-145.90;43.11
57562;BME280;43397;51.530;5.974;2023-04-08T16:20:15;76521.63;;;-145.90;43.66
57562;BME280;43397;51.530;5.974;2023-04-08T16:22:41;76545.94;;;-145.90;43.42
57562;BME280;43397;51.530;5.974;2023-04-08T16:25:07;76501.34;;;-145.90;42.63
57562;BME280;43397;51.530;5.974;2023-04-08T16:27:33;76397.97;;;-145.90;40.87
57562;BME280;43397;51.530;5.974;2023-04-08T16:29:58;76400.00;;;-145.90;40.23
57562;BME280;43397;51.530;5.974;2023-04-08T16:32:25;76487.16;;;-145.90;41.88
57562;BME280;43397;51.530;5.974;2023-04-08T16:34:51;76499.31;;;-145.90;42.56
57562;BME280;43397;51.530;5.974;2023-04-08T16:37:16;76460.81;;;-145.90;42.06
57562;BME280;43397;51.530;5.974;2023-04-08T16:39:42;76479.03;;;-145.90;42.18
57562;BME280;43397;51.530;5.974;2023-04-08T16:42:08;76547.97;;;-145.90;43.45
57562;BME280;43397;51.530;5.974;2023-04-08T16:44:34;76501.34;;;-145.90;42.45
57562;BME280;43397;51.530;5.974;2023-04-08T16:46:59;76434.44;;;-145.90;42.69
57562;BME280;43397;51.530;5.974;2023-04-08T16:49:26;76365.53;;;-145.90;41.23
57562;BME280;43397;51.530;5.974;2023-04-08T16:51:52;76485.13;;;-145.90;42.32
57562;BME280;43397;51.530;5.974;2023-04-08T16:54:18;76493.22;;;-145.90;42.76
57562;BME280;43397;51.530;5.974;2023-04-08T16:56:43;76373.63;;;-145.90;41.55
57562;BME280;43397;51.530;5.974;2023-04-08T16:59:09;76456.75;;;-145.90;41.52
57562;BME280;43397;51.530;5.974;2023-04-08T17:01:34;76454.72;;;-145.90;41.98
57562;BME280;43397;51.530;5.974;2023-04-08T17:04:00;76554.03;;;-145.90;43.39
57562;BME280;43397;51.530;5.974;2023-04-08T17:06:28;76487.16;;;-145.90;41.91
57562;BME280;43397;51.530;5.974;2023-04-08T17:08:54;76156.75;;;-145.90;37.84
57562;BME280;43397;51.530;5.974;2023-04-08T17:11:32;76440.53;;;-145.90;41.85
57562;BME280;43397;51.530;5.974;2023-04-08T17:13:58;76438.50;;;-145.90;42.16
57562;BME280;43397;51.530;5.974;2023-04-08T17:16:23;76481.06;;;-145.90;42.51
57562;BME280;43397;51.530;5.974;2023-04-08T17:18:49;76462.81;;;-145.90;42.51
57562;BME280;43397;51.530;5.974;2023-04-08T17:21:15;76519.59;;;-145.90;43.65
57562;BME280;43397;51.530;5.974;2023-04-08T17:23:42;76472.97;;;-145.90;42.68
57562;BME280;43397;51.530;5.974;2023-04-08T17:26:08;76462.81;;;-145.90;41.91
57562;BME280;43397;51.530;5.974;2023-04-08T17:28:34;76444.59;;;-145.90;41.36
57562;BME280;43397;51.530;5.974;2023-04-08T17:31:00;76503.38;;;-145.90;42.79
57562;BME280;43397;51.530;5.974;2023-04-08T17:33:26;76481.06;;;-145.90;42.45
57562;BME280;43397;51.530;5.974;2023-04-08T17:35:51;76436.47;;;-145.90;42.25
57562;BME280;43397;51.530;5.974;2023-04-08T17:38:17;76416.19;;;-145.90;41.48
57562;BME280;43397;51.530;5.974;2023-04-08T17:40:44;76442.56;;;-145.90;42.02
57562;BME280;43397;51.530;5.974;2023-04-08T17:43:10;76547.97;;;-145.90;43.11
57562;BME280;43397;51.530;5.974;2023-04-08T17:45:36;76302.69;;;-145.90;40.70
57562;BME280;43397;51.530;5.974;2023-04-08T17:48:01;76414.19;;;-145.90;41.34
57562;BME280;43397;51.530;5.974;2023-04-08T17:50:27;76385.81;;;-145.90;40.69
57562;BME280;43397;51.530;5.974;2023-04-08T17:52:53;76509.44;;;-145.90;42.34
57562;BME280;43397;51.530;5.974;2023-04-08T17:55:18;76318.91;;;-145.90;40.30
57562;BME280;43397;51.530;5.974;2023-04-08T17:57:45;76373.63;;;-145.90;41.30
57562;BME280;43397;51.530;5.974;2023-04-08T18:00:11;76539.84;;;-145.90;42.91
57562;BME280;43397;51.530;5.974;2023-04-08T18:02:37;76594.59;;;-145.90;44.52
57562;BME280;43397;51.530;5.974;2023-04-08T18:05:03;76588.50;;;-145.90;45.14
57562;BME280;43397;51.530;5.974;2023-04-08T18:07:28;76657.44;;;-145.90;45.72
57562;BME280;43397;51.530;5.974;2023-04-08T18:09:54;76586.47;;;-145.90;45.57
57562;BME280;43397;51.530;5.974;2023-04-08T18:12:20;76552.03;;;-145.90;43.98
57562;BME280;43397;51.530;5.974;2023-04-08T18:14:47;76602.69;;;-145.90;44.79
57562;BME280;43397;51.530;5.974;2023-04-08T18:17:12;76452.69;;;-145.90;43.49
57562;BME280;43397;51.530;5.974;2023-04-08T18:19:38;76414.19;;;-145.90;40.67
57562;BME280;43397;51.530;5.974;2023-04-08T18:22:04;76414.19;;;-145.90;41.50
57562;BME280;43397;51.530;5.974;2023-04-08T18:24:29;76397.97;;;-145.90;41.61
57562;BME280;43397;51.530;5.974;2023-04-08T18:26:55;76404.03;;;-145.90;41.65
57562;BME280;43397;51.530;5.974;2023-04-08T18:29:21;76424.31;;;-145.90;41.58
57562;BME280;43397;51.530;5.974;2023-04-08T18:31:47;76655.41;;;-145.90;44.93
57562;BME280;43397;51.530;5.974;2023-04-08T18:34:13;76410.13;;;-145.90;42.18
57562;BME280;43397;51.530;5.974;2023-04-08T18:36:39;76339.19;;;-145.90;40.36
57562;BME280;43397;51.530;5.974;2023-04-08T18:39:04;76598.66;;;-145.90;45.14
57562;BME280;43397;51.530;5.974;2023-04-08T18:41:30;76570.25;;;-145.90;44.77
57562;BME280;43397;51.530;5.974;2023-04-08T18:43:57;76570.25;;;-145.90;44.91
57562;BME280;43397;51.530;5.974;2023-04-08T18:46:22;76645.28;;;-145.90;44.76
57562;BME280;43397;51.530;5.974;2023-04-08T18:48:49;76702.03;;;-145.90;46.08
57562;BME280;43397;51.530;5.974;2023-04-08T18:51:15;76693.94;;;-145.90;46.06
57562;BME280;43397;51.530;5.974;2023-04-08T18:53:41;76657.44;;;-145.90;45.36
57562;BME280;43397;51.530;5.974;2023-04-08T18:56:13;76667.56;;;-145.90;45.67
57562;BME280;43397;51.530;5.974;2023-04-08T18:58:38;76629.06;;;-145.90;45.10
57562;BME280;43397;51.530;5.974;2023-04-08T19:01:05;76588.50;;;-145.90;45.30
57562;BME280;43397;51.530;5.974;2023-04-08T19:03:30;76570.25;;;-145.90;45.17
57562;BME280;43397;51.530;5.974;2023-04-08T19:06:03;76464.84;;;-145.90;43.51
57562;BME280;43397;51.530;5.974;2023-04-08T19:08:29;76513.50;;;-145.90;44.49
57562;BME280;43397;51.530;5.974;2023-04-08T19:10:54;76519.59;;;-145.90;44.26
57562;BME280;43397;51.530;5.974;2023-04-08T19:13:20;76562.16;;;-145.90;44.83
57562;BME280;43397;51.530;5.974;2023-04-08T19:15:46;76645.28;;;-145.90;46.21
57562;BME280;43397;51.530;5.974;2023-04-08T19:18:11;76446.63;;;-145.90;43.30
57562;BME280;43397;51.530;5.974;2023-04-08T19:20:37;76582.44;;;-145.90;44.27
57562;BME280;43397;51.530;5.974;2023-04-08T19:23:04;76464.84;;;-145.90;42.73
57562;BME280;43397;51.530;5.974;2023-04-08T19:25:29;76426.34;;;-145.90;42.16
57562;BME280;43397;51.530;5.974;2023-04-08T19:27:55;76434.44;;;-145.90;42.26
57562;BME280;43397;51.530;5.974;2023-04-08T19:30:21;76481.06;;;-145.90;42.59
57562;BME280;43397;51.530;5.974;2023-04-08T19:32:46;76489.19;;;-145.90;42.61
57562;BME280;43397;51.530;5.974;2023-04-08T19:35:12;76681.75;;;-145.90;45.89
57562;BME280;43397;51.530;5.974;2023-04-08T19:37:38;76517.56;;;-145.90;44.59
57562;BME280;43397;51.530;5.974;2023-04-08T19:40:06;76639.19;;;-145.90;45.31
57562;BME280;43397;51.530;5.974;2023-04-08T19:42:32;76639.19;;;-145.90;45.08
57562;BME280;43397;51.530;5.974;2023-04-08T19:44:58;76645.28;;;-145.90;45.69
57562;BME280;43397;51.530;5.974;2023-04-08T19:47:24;76568.25;;;-145.90;45.19
57562;BME280;43397;51.530;5.974;2023-04-08T19:49:49;76708.13;;;-145.90;46.47
57562;BME280;43397;51.530;5.974;2023-04-08T19:52:15;76655.41;;;-145.90;46.15
57562;BME280;43397;51.530;5.974;2023-04-08T19:54:41;76491.22;;;-145.90;43.49
57562;BME280;43397;51.530;5.974;2023-04-08T19:57:08;76616.88;;;-145.90;45.97
57562;BME280;43397;51.530;5.974;2023-04-08T19:59:33;76683.78;;;-145.90;46.39
57562;BME280;43397;51.530;5.974;2023-04-08T20:01:59;76515.53;;;-145.90;43.37
57562;BME280;43397;51.530;5.974;2023-04-08T20:04:25;76610.81;;;-145.90;44.95
57562;BME280;43397;51.530;5.974;2023-04-08T20:06:50;76653.38;;;-145.90;46.15
57562;BME280;43397;51.530;5.974;2023-04-08T20:09:16;76639.19;;;-145.90;45.63
57562;BME280;43397;51.530;5.974;2023-04-08T20:11:42;76627.03;;;-145.90;45.58
57562;BME280;43397;51.530;5.974;2023-04-08T20:14:09;76702.03;;;-145.90;46.42
57562;BME280;43397;51.530;5.974;2023-04-08T20:16:34;76726.34;;;-145.90;46.98
57562;BME280;43397;51.530;5.974;2023-04-08T20:19:00;76712.16;;;-145.90;47.29
57562;BME280;43397;51.530;5.974;2023-04-08T20:21:25;76525.66;;;-145.90;44.43
57562;BME280;43397;51.530;5.974;2023-04-08T20:23:51;76736.50;;;-145.90;47.13
57562;BME280;43397;51.530;5.974;2023-04-08T20:26:17;76738.53;;;-145.90;47.18
57562;BME280;43397;51.530;5.974;2023-04-08T20:28:42;76766.91;;;-145.90;47.39
57562;BME280;43397;51.530;5.974;2023-04-08T20:31:09;76740.56;;;-145.90;47.55
57562;BME280;43397;51.530;5.974;2023-04-08T20:33:35;76726.34;;;-145.90;46.95
57562;BME280;43397;51.530;5.974;2023-04-08T20:36:01;76756.78;;;-145.90;46.90
57562;BME280;43397;51.530;5.974;2023-04-08T20:38:26;76576.34;;;-145.90;43.95
57562;BME280;43397;51.530;5.974;2023-04-08T20:40:52;76702.03;;;-145.90;46.29
57562;BME280;43397;51.530;5.974;2023-04-08T20:43:18;76750.69;;;-145.90;46.93
57562;BME280;43397;51.530;5.974;2023-04-08T20:45:43;76695.94;;;-145.90;46.15
57562;BME280;43397;51.530;5.974;2023-04-08T20:48:10;76742.56;;;-145.90;47.01
57562;BME280;43397;51.530;5.974;2023-04-08T20:50:36;76720.28;;;-145.90;47.05
57562;BME280;43397;51.530;5.974;2023-04-08T20:53:02;76685.81;;;-145.90;46.30
57562;BME280;43397;51.530;5.974;2023-04-08T20:55:27;76712.16;;;-145.90;47.00
57562;BME280;43397;51.530;5.974;2023-04-08T20:57:53;76625.00;;;-145.90;45.28
57562;BME280;43397;51.530;5.974;2023-04-08T21:00:19;76754.75;;;-145.90;46.41
57562;BME280;43397;51.530;5.974;2023-04-08T21:02:45;76754.75;;;-145.90;46.83
57562;BME280;43397;51.530;5.974;2023-04-08T21:05:12;76793.25;;;-145.90;47.18
57562;BME280;43397;51.530;5.974;2023-04-08T21:07:38;76631.09;;;-145.90;45.74
57562;BME280;43397;51.530;5.974;2023-04-08T21:10:04;76764.88;;;-145.90;47.10
57562;BME280;43397;51.530;5.974;2023-04-08T21:12:30;76742.56;;;-145.90;47.41
57562;BME280;43397;51.530;5.974;2023-04-08T21:14:56;76691.91;;;-145.90;46.69
57562;BME280;43397;51.530;5.974;2023-04-08T21:17:21;76718.25;;;-145.90;46.75
57562;BME280;43397;51.530;5.974;2023-04-08T21:19:47;76732.44;;;-145.90;47.01
57562;BME280;43397;51.530;5.974;2023-04-08T21:22:14;76639.19;;;-145.90;45.54
57562;BME280;43397;51.530;5.974;2023-04-08T21:24:40;76653.38;;;-145.90;46.13
57562;BME280;43397;51.530;5.974;2023-04-08T21:27:05;76655.41;;;-145.90;46.32
57562;BME280;43397;51.530;5.974;2023-04-08T21:29:31;76702.03;;;-145.90;47.04
57562;BME280;43397;51.530;5.974;2023-04-08T21:31:57;76645.28;;;-145.90;46.26
57562;BME280;43397;51.530;5.974;2023-04-08T21:34:22;76651.34;;;-145.90;46.44
57562;BME280;43397;51.530;5.974;2023-04-08T21:36:48;76458.78;;;-145.90;43.39
57562;BME280;43397;51.530;5.974;2023-04-08T21:39:15;76594.59;;;-145.90;44.96
57562;BME280;43397;51.530;5.974;2023-04-08T21:41:41;76620.94;;;-145.90;45.45
57562;BME280;43397;51.530;5.974;2023-04-08T21:44:06;76588.50;;;-145.90;45.22
57562;BME280;43397;51.530;5.974;2023-04-08T21:46:32;76629.06;;;-145.90;45.73
57562;BME280;43397;51.530;5.974;2023-04-08T21:48:57;76560.13;;;-145.90;44.86
57562;BME280;43397;51.530;5.974;2023-04-08T21:51:23;76631.09;;;-145.90;45.89
57562;BME280;43397;51.530;5.974;2023-04-08T21:53:49;76580.41;;;-145.90;44.82
57562;BME280;43397;51.530;5.974;2023-04-08T21:56:16;76653.38;;;-145.90;46.08
57562;BME280;43397;51.530;5.974;2023-04-08T21:58:41;76625.00;;;-145.90;46.36
57562;BME280;43397;51.530;5.974;2023-04-08T22:01:07;76460.81;;;-145.90;43.59
57562;BME280;43397;51.530;5.974;2023-04-08T22:03:33;76481.06;;;-145.90;43.96
57562;BME280;43397;51.530;5.974;2023-04-08T22:05:58;76568.25;;;-145.90;44.45
57562;BME280;43397;51.530;5.974;2023-04-08T22:08:24;76643.25;;;-145.90;46.17
57562;BME280;43397;51.530;5.974;2023-04-08T22:10:50;76479.03;;;-145.90;43.70